Time;durP1;ratioP1;P1;durP2;ratioP2;P2;SDS_P1;SDS_P2;PMS_P1;PMS_P2;Temp;Humidity;BMP_temperature;BMP_pressure;BME280_temperature;BME280_humidity;BME280_pressure;Samples;Min_cycle;Max_cycle;Signal;HPM_P1;HPM_P2
2022/05/09 00:01:17;;;;;;;18.10;8.60;;;;;;;15.03;55.24;99695.17;105493;1282;96415;-69
2022/05/09 00:03:45;;;;;;;20.30;9.20;;;;;;;15.01;55.30;99698.20;105684;1283;96416;-68
2022/05/09 00:06:16;;;;;;;18.50;8.80;;;;;;;14.99;55.42;99701.21;105632;1283;111489;-69
2022/05/09 00:08:46;;;;;;;20.00;9.00;;;;;;;14.96;55.42;99706.61;105626;1283;95218;-67
2022/05/09 00:11:17;;;;;;;21.10;9.10;;;;;;;14.93;55.47;99706.10;105436;1283;108863;-68
2022/05/09 00:13:49;;;;;;;17.40;9.10;;;;;;;14.90;55.50;99706.02;105421;1283;97023;-69
2022/05/09 00:16:21;;;;;;;18.50;8.70;;;;;;;14.87;55.55;99706.45;105507;1282;98066;-69
2022/05/09 00:18:53;;;;;;;17.30;8.30;;;;;;;14.83;55.62;99706.76;105262;1282;112016;-69
2022/05/09 00:21:21;;;;;;;17.40;8.10;;;;;;;14.80;55.53;99706.28;105431;1282;96278;-70
2022/05/09 00:23:51;;;;;;;18.80;8.30;;;;;;;14.76;55.58;99705.87;105444;1282;108361;-69
2022/05/09 00:26:21;;;;;;;16.70;7.80;;;;;;;14.73;55.69;99707.70;105523;1283;97888;-69
2022/05/09 00:28:49;;;;;;;17.10;7.70;;;;;;;14.69;55.68;99708.32;105515;1285;98083;-69
2022/05/09 00:31:19;;;;;;;16.80;7.60;;;;;;;14.66;55.74;99703.75;105544;1284;112016;-69
2022/05/09 00:33:55;;;;;;;21.40;8.30;;;;;;;14.62;55.78;99707.85;105481;1284;97962;-69
2022/05/09 00:36:23;;;;;;;18.10;7.40;;;;;;;14.57;55.84;99707.14;105471;1284;108359;-70
2022/05/09 00:38:51;;;;;;;16.80;7.90;;;;;;;14.54;55.83;99713.80;105577;1283;98073;-68
2022/05/09 00:41:34;;;;;;;18.90;7.90;;;;;;;14.49;55.86;99715.80;105589;1283;96320;-73
2022/05/09 00:44:09;;;;;;;16.90;7.50;;;;;;;14.42;56.02;99717.45;105333;1284;111436;-69
2022/05/09 00:46:43;;;;;;;22.50;8.10;;;;;;;14.38;56.03;99720.40;105589;1283;96608;-69
2022/05/09 00:49:30;;;;;;;17.10;7.80;;;;;;;14.35;56.02;99720.43;105142;1284;107900;-69
2022/05/09 00:52:17;;;;;;;17.00;7.30;;;;;;;14.31;56.05;99718.09;105293;1284;97964;-70
2022/05/09 00:55:08;;;;;;;18.20;8.00;;;;;;;14.30;56.20;99722.45;105498;1284;95393;-71
2022/05/09 00:57:57;;;;;;;15.10;7.10;;;;;;;14.29;56.17;99718.77;105318;1284;111486;-68
2022/05/09 01:00:25;;;;;;;17.00;6.60;;;;;;;14.27;56.30;99722.85;105601;1283;97790;-68
2022/05/09 01:03:05;;;;;;;16.60;6.90;;;;;;;14.27;56.29;99719.33;105523;1283;108423;-68
2022/05/09 01:05:33;;;;;;;17.40;7.20;;;;;;;14.26;56.33;99719.59;105486;1283;97932;-69
2022/05/09 01:08:01;;;;;;;17.30;7.50;;;;;;;14.25;56.39;99720.34;105449;1284;97966;-70
2022/05/09 01:10:34;;;;;;;20.60;8.40;;;;;;;14.25;56.40;99719.52;105475;1284;111938;-69
2022/05/09 01:13:11;;;;;;;17.00;7.20;;;;;;;14.24;56.36;99721.71;105471;1284;97975;-70
2022/05/09 01:15:45;;;;;;;17.70;7.60;;;;;;;14.23;56.49;99724.10;105425;1284;108198;-70
2022/05/09 01:18:18;;;;;;;18.90;8.20;;;;;;;14.21;56.37;99726.94;105420;1284;97790;-69
2022/05/09 01:20:46;;;;;;;16.10;6.80;;;;;;;14.18;56.44;99725.20;105638;1283;97902;-69
2022/05/09 01:23:17;;;;;;;17.80;7.40;;;;;;;14.15;56.48;99730.44;105416;1284;112080;-69
2022/05/09 01:25:45;;;;;;;19.20;7.60;;;;;;;14.11;56.49;99728.55;105483;1283;98012;-68
2022/05/09 01:28:13;;;;;;;16.70;6.90;;;;;;;14.08;56.56;99729.16;105506;1284;108260;-69
2022/05/09 01:30:56;;;;;;;19.30;7.80;;;;;;;14.05;56.61;99732.09;105541;1283;98071;-68
2022/05/09 01:33:36;;;;;;;18.20;8.20;;;;;;;14.03;56.67;99735.80;105591;1282;97876;-68
2022/05/09 01:36:21;;;;;;;18.50;7.10;;;;;;;14.01;56.83;99738.63;105641;1283;111380;-69
2022/05/09 01:38:58;;;;;;;17.20;7.30;;;;;;;14.00;56.96;99736.50;105647;1283;97975;-68
2022/05/09 01:41:37;;;;;;;17.50;7.40;;;;;;;14.00;57.00;99736.18;105611;1283;108328;-67
2022/05/09 01:44:10;;;;;;;19.40;8.00;;;;;;;14.00;57.08;99732.64;105593;1282;97976;-70
2022/05/09 01:49:34;;;;;;;18.20;7.30;;;;;;;13.98;57.13;99722.59;105597;1283;112033;-69
2022/05/09 01:52:09;;;;;;;15.80;6.80;;;;;;;13.97;57.23;99720.14;105576;1283;98464;-69
2022/05/09 01:54:40;;;;;;;13.60;6.40;;;;;;;13.96;57.34;99717.19;105404;1284;107522;-70
2022/05/09 01:57:14;;;;;;;16.20;6.70;;;;;;;13.97;57.37;99720.38;105562;1283;98133;-69
2022/05/09 01:59:45;;;;;;;18.60;7.30;;;;;;;13.97;57.44;99723.19;105649;1283;97876;-69
2022/05/09 02:02:21;;;;;;;15.80;6.90;;;;;;;13.97;57.51;99728.17;105615;1283;111508;-69
2022/05/09 02:04:50;;;;;;;17.30;7.10;;;;;;;13.98;57.45;99726.86;105628;1283;97976;-69
2022/05/09 02:07:19;;;;;;;17.00;6.70;;;;;;;14.00;57.61;99735.25;105497;1283;107862;-68
2022/05/09 02:09:51;;;;;;;16.00;7.30;;;;;;;14.01;57.63;99732.39;105455;1284;97972;-69
2022/05/09 02:12:21;;;;;;;16.40;7.00;;;;;;;14.01;57.67;99736.63;105373;1285;97897;-69
2022/05/09 02:14:50;;;;;;;16.40;6.90;;;;;;;14.02;57.70;99736.55;105445;1284;112096;-69
2022/05/09 02:17:19;;;;;;;17.40;7.30;;;;;;;14.03;57.80;99744.20;105583;1282;97972;-69
2022/05/09 02:19:48;;;;;;;14.30;6.50;;;;;;;14.02;57.74;99750.13;105497;1284;107723;-68
2022/05/09 02:22:16;;;;;;;16.20;6.90;;;;;;;13.99;57.74;99756.92;105511;1284;97986;-69
2022/05/09 02:24:45;;;;;;;17.40;7.00;;;;;;;13.96;57.80;99760.19;105538;1283;96394;-69
2022/05/09 02:27:17;;;;;;;17.40;7.80;;;;;;;13.95;57.86;99767.06;105451;1284;112007;-71
2022/05/09 02:29:47;;;;;;;16.30;7.30;;;;;;;13.89;57.82;99772.13;105324;1284;97865;-69
2022/05/09 02:32:16;;;;;;;16.60;7.20;;;;;;;13.84;57.85;99777.99;105567;1283;106492;-70
2022/05/09 02:34:48;;;;;;;;;;;;;;;13.79;57.85;99776.79;105546;1283;97991;-70
2022/05/09 02:37:16;;;;;;;14.40;7.00;;;;;;;13.71;57.97;99774.89;105542;1284;98376;-70
2022/05/09 02:39:46;;;;;;;15.80;7.00;;;;;;;13.66;57.97;99773.31;105515;1283;112030;-69
2022/05/09 02:42:16;;;;;;;16.60;7.10;;;;;;;13.62;58.17;99772.55;105572;1283;97737;-69
2022/05/09 02:44:44;;;;;;;19.00;7.00;;;;;;;13.60;58.27;99779.66;105524;1283;107810;-69
2022/05/09 02:47:13;;;;;;;15.90;6.80;;;;;;;13.59;58.23;99784.52;105535;1283;97883;-69
2022/05/09 02:49:42;;;;;;;17.50;7.20;;;;;;;13.60;58.45;99785.70;105535;1283;97864;-69
2022/05/09 02:52:10;;;;;;;18.00;6.60;;;;;;;13.60;58.39;99783.74;105587;1283;111493;-69
2022/05/09 02:54:39;;;;;;;15.60;6.80;;;;;;;13.60;58.44;99783.39;105571;1284;98452;-70
2022/05/09 02:57:08;;;;;;;15.10;6.30;;;;;;;13.60;58.55;99786.92;105461;1283;107870;-70
2022/05/09 02:59:39;;;;;;;13.90;6.30;;;;;;;13.60;58.58;99786.38;105483;1284;97896;-69
2022/05/09 03:02:09;;;;;;;14.90;6.10;;;;;;;13.62;58.56;99785.55;105521;1283;98004;-69
2022/05/09 03:04:40;;;;;;;13.90;6.40;;;;;;;13.62;58.74;99784.67;105540;1283;112458;-70
2022/05/09 03:07:16;;;;;;;15.20;6.00;;;;;;;13.61;58.67;99782.55;105560;1283;97910;-68
2022/05/09 03:09:50;;;;;;;14.40;5.80;;;;;;;13.61;58.88;99783.10;105248;1283;107722;-69
2022/05/09 03:12:22;;;;;;;12.70;5.80;;;;;;;13.62;58.82;99784.51;105499;1283;97996;-69
2022/05/09 03:14:51;;;;;;;14.20;5.70;;;;;;;13.61;58.85;99786.16;105246;1284;97858;-70
2022/05/09 03:17:18;;;;;;;12.80;5.60;;;;;;;13.60;58.89;99792.06;105443;1283;111531;-68
2022/05/09 03:19:47;;;;;;;13.40;5.60;;;;;;;13.60;59.01;99789.77;105355;1283;98704;-69
2022/05/09 03:22:14;;;;;;;14.90;6.20;;;;;;;13.60;59.04;99790.11;105245;1284;107923;-69
2022/05/09 03:24:43;;;;;;;14.40;5.70;;;;;;;13.61;59.08;99792.02;105353;1283;97774;-69
2022/05/09 03:27:14;;;;;;;13.50;5.80;;;;;;;13.63;59.15;99796.88;105456;1283;97860;-67
2022/05/09 03:29:45;;;;;;;13.10;5.80;;;;;;;13.64;59.30;99798.20;105482;1283;109825;-69
2022/05/09 03:32:13;;;;;;;11.90;5.50;;;;;;;13.64;59.25;99792.85;105517;1283;97922;-70
2022/05/09 03:34:41;;;;;;;15.00;5.90;;;;;;;13.64;59.24;99791.82;105494;1283;107800;-71
2022/05/09 03:37:09;;;;;;;11.80;5.40;;;;;;;13.64;59.37;99791.44;105468;1283;97974;-70
2022/05/09 03:39:38;;;;;;;13.60;6.00;;;;;;;13.65;59.43;99794.41;105533;1282;96365;-68
2022/05/09 03:42:06;;;;;;;13.30;6.00;;;;;;;13.67;59.50;99798.52;105472;1283;112485;-70
2022/05/09 03:44:34;;;;;;;20.30;6.30;;;;;;;13.69;59.49;99802.49;105442;1282;191647;-69
2022/05/09 03:47:02;;;;;;;16.80;6.30;;;;;;;13.70;59.51;99808.45;105574;1283;107669;-71
2022/05/09 03:49:30;;;;;;;12.60;5.90;;;;;;;13.71;59.59;99812.48;105635;1283;95953;-70
2022/05/09 03:51:58;;;;;;;12.70;6.10;;;;;;;13.71;59.66;99813.17;105610;1283;95299;-71
2022/05/09 03:54:26;;;;;;;12.70;5.80;;;;;;;13.73;59.78;99812.73;105638;1283;111388;-70
2022/05/09 03:56:54;;;;;;;16.60;6.10;;;;;;;13.73;59.77;99816.98;105598;1283;97935;-70
2022/05/09 03:59:22;;;;;;;16.10;6.60;;;;;;;13.75;59.76;99818.27;105483;1283;107727;-69
2022/05/09 04:01:50;;;;;;;15.40;6.30;;;;;;;13.76;59.74;99817.97;105500;1283;98064;-71
2022/05/09 04:04:18;;;;;;;15.10;6.40;;;;;;;13.78;59.79;99822.70;105472;1283;97890;-70
2022/05/09 04:06:46;;;;;;;14.70;6.00;;;;;;;13.77;59.86;99819.52;105449;1284;111603;-70
2022/05/09 04:09:14;;;;;;;12.70;6.10;;;;;;;13.79;59.91;99816.73;105541;1283;97916;-71
2022/05/09 04:11:42;;;;;;;15.90;6.00;;;;;;;13.81;60.00;99813.58;105477;1283;107733;-70
2022/05/09 04:14:10;;;;;;;15.60;6.10;;;;;;;13.81;59.95;99813.02;105501;1283;98030;-71
2022/05/09 04:16:50;;;;;;;11.30;5.70;;;;;;;13.81;59.97;99812.67;105429;1284;99264;-71
2022/05/09 04:19:23;;;;;;;14.70;6.30;;;;;;;13.84;60.21;99817.20;105476;1283;111318;-71
2022/05/09 04:21:51;;;;;;;16.00;5.90;;;;;;;13.89;60.06;99817.61;105464;1283;97901;-70
2022/05/09 04:24:20;;;;;;;14.30;5.90;;;;;;;13.92;60.21;99817.72;105467;1283;107737;-70
2022/05/09 04:26:49;;;;;;;12.90;6.20;;;;;;;13.96;60.17;99819.02;105493;1283;97973;-71
2022/05/09 04:29:17;;;;;;;16.30;6.30;;;;;;;14.01;60.29;99817.62;105309;1284;95308;-68
2022/05/09 04:31:45;;;;;;;14.90;6.20;;;;;;;14.07;60.28;99819.48;105250;1284;112199;-74
2022/05/09 04:34:13;;;;;;;16.10;6.60;;;;;;;14.10;60.22;99816.73;105437;1283;97645;-74
2022/05/09 04:36:41;;;;;;;14.20;6.80;;;;;;;14.14;60.33;99817.46;105537;1283;107707;-73
2022/05/09 04:39:09;;;;;;;14.90;6.50;;;;;;;14.20;60.33;99814.52;105493;1283;98121;-74
2022/05/09 04:41:39;;;;;;;14.10;6.00;;;;;;;14.27;60.34;99812.91;105603;1283;98031;-73
2022/05/09 04:44:08;;;;;;;15.90;6.30;;;;;;;14.34;60.27;99815.98;105532;1284;112399;-72
2022/05/09 04:46:38;;;;;;;16.30;6.60;;;;;;;14.40;60.27;99821.61;105491;1283;98010;-72
2022/05/09 04:49:06;;;;;;;14.70;6.40;;;;;;;14.45;60.26;99823.55;105160;1287;107668;-72
2022/05/09 04:51:34;;;;;;;17.80;7.30;;;;;;;14.54;60.36;99823.39;105474;1283;97982;-73
2022/05/09 04:54:02;;;;;;;16.50;6.50;;;;;;;14.62;60.22;99818.88;105449;1283;97772;-73
2022/05/09 04:56:30;;;;;;;14.10;6.70;;;;;;;14.65;60.20;99820.26;105389;1284;111249;-73
2022/05/09 04:58:58;;;;;;;14.00;6.20;;;;;;;14.68;60.27;99827.48;105488;1283;97876;-73
2022/05/09 05:01:26;;;;;;;19.50;6.10;;;;;;;14.72;60.27;99834.38;105522;1284;107754;-73
2022/05/09 05:03:54;;;;;;;21.10;7.00;;;;;;;14.72;60.25;99834.02;105483;1283;97971;-73
2022/05/09 05:06:21;;;;;;;16.00;6.70;;;;;;;14.73;60.24;99835.89;105507;1284;97841;-74
2022/05/09 05:08:50;;;;;;;15.90;6.30;;;;;;;14.77;60.37;99835.62;105433;1283;111435;-72
2022/05/09 05:11:17;;;;;;;15.90;6.60;;;;;;;14.81;60.47;99838.48;105388;1283;95863;-72
2022/05/09 05:13:45;;;;;;;17.10;6.60;;;;;;;14.84;60.42;99836.83;105396;1284;107781;-72
2022/05/09 05:16:13;;;;;;;16.10;6.60;;;;;;;14.85;60.45;99838.33;105410;1284;97275;-72
2022/05/09 05:18:42;;;;;;;14.50;6.40;;;;;;;14.86;60.46;99845.20;105476;1284;95302;-74
2022/05/09 05:21:15;;;;;;;13.10;6.40;;;;;;;14.87;60.44;99846.57;105455;1284;111486;-73
2022/05/09 05:23:44;;;;;;;16.60;6.10;;;;;;;14.87;60.40;99850.01;105551;1283;97905;-73
2022/05/09 05:26:13;;;;;;;19.80;7.20;;;;;;;14.87;60.42;99851.58;105436;1282;107850;-75
2022/05/09 05:28:41;;;;;;;17.90;7.10;;;;;;;14.88;60.42;99858.84;105160;1284;97776;-72
2022/05/09 05:31:14;;;;;;;16.30;7.30;;;;;;;14.88;60.41;99858.45;105437;1284;97860;-75
2022/05/09 05:33:44;;;;;;;15.20;7.10;;;;;;;14.90;60.42;99859.91;105484;1284;112110;-72
2022/05/09 05:36:16;;;;;;;16.80;7.10;;;;;;;14.93;60.50;99862.04;105190;1284;97916;-72
2022/05/09 05:38:44;;;;;;;15.70;6.70;;;;;;;14.94;60.35;99861.20;105510;1284;107614;-75
2022/05/09 05:41:13;;;;;;;18.50;7.40;;;;;;;14.95;60.41;99863.99;105471;1283;97899;-74
2022/05/09 05:43:41;;;;;;;17.30;7.20;;;;;;;14.98;60.42;99861.99;105478;1283;97964;-73
2022/05/09 05:46:11;;;;;;;21.80;8.10;;;;;;;15.02;60.38;99863.31;105099;1286;111507;-73
2022/05/09 05:48:40;;;;;;;13.70;6.20;;;;;;;15.06;60.46;99868.03;105546;1284;98082;-73
2022/05/09 05:51:11;;;;;;;19.20;7.50;;;;;;;15.11;60.45;99868.69;105298;1284;106077;-72
2022/05/09 05:53:39;;;;;;;17.90;6.80;;;;;;;15.18;60.55;99871.16;105469;1284;97855;-72
2022/05/09 05:56:08;;;;;;;17.70;7.30;;;;;;;15.27;60.47;99876.36;105401;1284;97866;-73
2022/05/09 05:58:36;;;;;;;15.20;7.00;;;;;;;15.36;60.52;99878.51;105533;1284;112422;-73
2022/05/09 06:01:05;;;;;;;16.30;6.70;;;;;;;15.46;60.61;99878.81;105226;1284;95304;-74
2022/05/09 06:03:33;;;;;;;16.50;7.00;;;;;;;15.55;60.60;99873.18;105537;1283;107735;-73
2022/05/09 06:06:02;;;;;;;14.10;6.30;;;;;;;15.66;60.52;99879.20;104983;1284;98022;-76
2022/05/09 06:08:30;;;;;;;15.60;7.60;;;;;;;15.74;60.43;99879.89;106864;1283;95908;-74
2022/05/09 06:10:58;;;;;;;16.90;7.50;;;;;;;15.83;60.57;99882.77;106664;1284;111426;-74
2022/05/09 06:13:25;;;;;;;17.40;7.00;;;;;;;15.90;60.44;99883.65;105087;1284;98113;-74
2022/05/09 06:15:53;;;;;;;17.10;7.20;;;;;;;15.97;60.57;99882.73;105232;1284;107806;-74
2022/05/09 06:18:22;;;;;;;16.70;7.80;;;;;;;16.03;60.54;99886.23;105963;1284;97966;-73
2022/05/09 06:20:50;;;;;;;18.70;8.10;;;;;;;16.08;60.33;99883.50;105256;1284;98037;-73
2022/05/09 06:23:19;;;;;;;15.70;7.20;;;;;;;16.11;60.37;99886.59;105480;1284;112680;-74
2022/05/09 06:25:48;;;;;;;18.40;7.30;;;;;;;16.15;60.41;99889.31;105220;1284;97878;-73
2022/05/09 06:28:22;;;;;;;18.20;7.10;;;;;;;16.20;60.54;99891.21;106656;1284;108541;-74
2022/05/09 06:30:50;;;;;;;18.60;7.80;;;;;;;16.27;60.51;99889.24;106966;1283;95977;-74
2022/05/09 06:33:25;;;;;;;18.70;7.80;;;;;;;16.34;60.32;99890.04;107012;1282;95960;-73
2022/05/09 06:35:54;;;;;;;17.10;7.00;;;;;;;16.42;60.29;99889.21;106964;1283;111478;-74
2022/05/09 06:38:23;;;;;;;17.60;7.70;;;;;;;16.46;60.27;99889.81;106959;1283;97816;-74
2022/05/09 06:40:58;;;;;;;16.70;7.10;;;;;;;16.54;60.30;99892.58;105636;1284;106344;-73
2022/05/09 06:43:26;;;;;;;24.20;11.80;;;;;;;16.62;60.30;99892.73;105513;1283;98024;-73
2022/05/09 06:45:54;;;;;;;19.20;7.20;;;;;;;16.64;60.21;99891.11;105646;1283;96077;-73
2022/05/09 06:48:23;;;;;;;23.30;7.40;;;;;;;16.67;60.16;99892.66;105528;1283;111431;-73
2022/05/09 06:50:51;;;;;;;16.00;6.90;;;;;;;16.68;60.13;99893.48;105270;1284;97897;-73
2022/05/09 06:53:18;;;;;;;17.60;7.40;;;;;;;16.72;60.21;99892.09;105488;1283;107783;-75
2022/05/09 06:55:51;;;;;;;16.30;6.60;;;;;;;16.74;60.08;99895.48;105307;1284;97995;-75
2022/05/09 06:58:22;;;;;;;16.80;7.10;;;;;;;16.79;60.40;99897.70;105638;1283;97893;-74
2022/05/09 07:00:55;;;;;;;15.70;6.80;;;;;;;16.88;60.17;99901.48;105348;1284;114224;-75
2022/05/09 07:03:25;;;;;;;17.50;6.40;;;;;;;17.78;58.96;99897.63;105380;1284;97980;-75
2022/05/09 07:05:55;;;;;;;19.80;7.00;;;;;;;19.80;57.66;99897.01;105337;1284;107405;-75
2022/05/09 07:08:29;;;;;;;16.70;6.10;;;;;;;21.80;57.14;99891.77;105575;1283;97999;-74
2022/05/09 07:11:02;;;;;;;13.30;5.70;;;;;;;23.83;56.97;99894.31;105639;1281;97896;-74
2022/05/09 07:13:42;;;;;;;15.00;5.60;;;;;;;25.79;56.34;99893.17;105557;1284;111104;-76
2022/05/09 07:16:13;;;;;;;15.20;5.90;;;;;;;27.36;56.16;99889.69;105562;1283;97967;-72
2022/05/09 07:18:42;;;;;;;13.40;5.30;;;;;;;28.74;55.84;99894.42;105545;1281;107788;-73
2022/05/09 07:21:10;;;;;;;17.20;5.40;;;;;;;29.95;55.35;99893.58;105437;1281;98004;-74
2022/05/09 07:23:39;;;;;;;10.10;4.80;;;;;;;31.12;55.04;99896.62;105488;1283;97956;-72
2022/05/09 07:26:07;;;;;;;11.70;5.20;;;;;;;32.21;54.64;99900.27;105464;1281;111286;-78
2022/05/09 07:28:35;;;;;;;9.10;4.70;;;;;;;33.24;54.26;99903.30;105462;1283;98510;-76
2022/05/09 07:31:04;;;;;;;13.30;5.30;;;;;;;34.16;53.84;99905.50;105466;1283;105844;-74
2022/05/09 07:33:32;;;;;;;10.20;5.10;;;;;;;35.00;53.27;99905.66;105384;1283;97940;-74
2022/05/09 07:36:05;;;;;;;9.70;5.20;;;;;;;35.70;52.59;99908.95;105469;1283;97921;-73
2022/05/09 07:38:33;;;;;;;13.40;5.30;;;;;;;36.24;51.75;99909.23;105220;1283;111320;-72
2022/05/09 07:41:01;;;;;;;10.40;4.80;;;;;;;36.76;51.33;99911.86;105447;1283;98401;-73
2022/05/09 07:43:30;;;;;;;10.30;4.70;;;;;;;37.13;50.61;99913.90;105402;1283;107644;-73
2022/05/09 07:45:58;;;;;;;8.30;4.40;;;;;;;37.47;49.85;99914.05;105506;1283;96464;-72
2022/05/09 07:48:29;;;;;;;10.10;4.70;;;;;;;37.89;49.42;99912.88;105468;1281;97893;-72
2022/05/09 07:51:02;;;;;;;9.70;4.70;;;;;;;38.45;48.74;99909.05;105417;1283;111644;-72
2022/05/09 07:53:33;;;;;;;14.60;5.30;;;;;;;38.75;48.12;99909.95;105533;1283;98034;-72
2022/05/09 07:56:04;;;;;;;12.30;4.50;;;;;;;39.03;47.05;99909.03;105489;1283;107737;-74
2022/05/09 07:58:35;;;;;;;9.20;4.80;;;;;;;39.07;46.65;99906.52;105510;1283;97996;-71
2022/05/09 08:01:06;;;;;;;12.00;4.90;;;;;;;39.42;45.91;99906.88;105536;1283;96211;-71
2022/05/09 08:03:38;;;;;;;11.40;5.30;;;;;;;39.71;45.34;99908.41;105436;1283;111561;-72
2022/05/09 08:06:08;;;;;;;11.50;5.00;;;;;;;39.74;44.88;99907.52;105495;1283;99123;-71
2022/05/09 08:08:36;;;;;;;14.00;5.50;;;;;;;39.46;43.86;99909.20;105491;1283;107771;-72
2022/05/09 08:11:13;;;;;;;10.10;4.80;;;;;;;39.37;43.50;99913.23;105475;1283;98037;-72
2022/05/09 08:13:43;;;;;;;11.50;5.10;;;;;;;39.37;42.90;99912.80;105394;1283;97833;-73
2022/05/09 08:16:12;;;;;;;13.10;5.00;;;;;;;39.45;42.44;99912.32;105487;1282;111406;-72
2022/05/09 08:18:43;;;;;;;13.10;5.00;;;;;;;39.59;41.78;99918.65;105505;1283;95733;-73
2022/05/09 08:21:13;;;;;;;11.00;5.10;;;;;;;39.35;41.15;99916.59;105334;1283;106665;-72
2022/05/09 08:23:46;;;;;;;10.40;5.10;;;;;;;39.43;41.01;99920.69;105388;1284;97773;-73
2022/05/09 08:26:15;;;;;;;9.00;4.90;;;;;;;39.33;40.47;99922.42;105468;1283;97881;-73
2022/05/09 08:28:45;;;;;;;10.40;4.80;;;;;;;39.25;39.82;99920.27;105482;1283;111393;-73
2022/05/09 08:31:18;;;;;;;9.30;5.00;;;;;;;39.34;39.29;99922.33;105569;1283;98493;-74
2022/05/09 08:33:49;;;;;;;10.10;4.90;;;;;;;39.39;38.80;99926.27;105501;1283;106274;-73
2022/05/09 08:39:08;;;;;;;9.70;4.90;;;;;;;39.74;38.10;99919.89;105389;1283;96683;-72
2022/05/09 08:41:55;;;;;;;8.70;4.70;;;;;;;39.80;37.57;99932.16;105473;1283;111957;-71
2022/05/09 08:45:08;;;;;;;11.20;5.10;;;;;;;39.83;36.93;99931.65;105400;1284;98584;-72
2022/05/09 08:47:58;;;;;;;10.40;4.80;;;;;;;39.70;36.33;99936.82;105375;1284;107968;-73
2022/05/09 08:50:50;;;;;;;12.30;4.50;;;;;;;39.75;36.15;99936.47;105391;1284;97748;-72
2022/05/09 08:53:26;;;;;;;11.10;4.70;;;;;;;39.64;35.27;99930.05;105269;1284;97956;-73
2022/05/09 08:55:57;;;;;;;9.00;4.60;;;;;;;39.46;34.97;99931.74;105332;1283;112072;-74
2022/05/09 08:58:37;;;;;;;9.30;4.70;;;;;;;39.34;34.93;99930.61;105441;1284;97063;-72
2022/05/09 09:01:18;;;;;;;8.60;4.60;;;;;;;39.18;34.85;99925.17;105199;1284;107707;-73
2022/05/09 09:04:04;;;;;;;6.80;4.40;;;;;;;39.22;34.03;99924.61;105534;1284;97054;-73
2022/05/09 09:06:41;;;;;;;5.20;3.70;;;;;;;39.27;33.84;99918.04;105377;1284;97878;-70
2022/05/09 09:09:20;;;;;;;11.00;5.00;;;;;;;39.17;33.61;99921.19;105415;1283;111404;-71
2022/05/09 09:11:59;;;;;;;10.70;4.50;;;;;;;38.28;33.16;99929.30;105455;1283;97595;-71
2022/05/09 09:14:44;;;;;;;9.90;4.20;;;;;;;37.20;33.01;99932.00;105417;1283;107733;-71
2022/05/09 09:17:25;;;;;;;12.60;5.40;;;;;;;36.08;32.78;99930.76;105374;1284;97907;-71
2022/05/09 09:20:02;;;;;;;10.40;4.20;;;;;;;34.92;32.24;99929.52;105446;1283;95231;-72
2022/05/09 09:22:33;;;;;;;9.30;4.10;;;;;;;33.86;31.98;99930.59;105436;1284;109493;-71
2022/05/09 09:25:19;;;;;;;9.60;4.00;;;;;;;32.71;31.92;99933.09;105415;1284;96958;-71
2022/05/09 09:28:18;;;;;;;8.30;3.90;;;;;;;31.71;31.78;99932.94;105366;1283;106905;-74
2022/05/09 09:30:49;;;;;;;8.30;4.30;;;;;;;30.69;31.49;99931.50;104536;1284;98079;-72
2022/05/09 09:33:20;;;;;;;8.20;4.30;;;;;;;30.00;31.45;99937.92;105341;1284;97983;-73
2022/05/09 09:36:13;;;;;;;10.00;4.30;;;;;;;29.89;31.32;99935.34;105321;1284;111428;-71
2022/05/09 09:38:57;;;;;;;9.60;4.20;;;;;;;29.95;31.40;99934.86;105411;1284;98377;-71
2022/05/09 09:41:33;;;;;;;8.50;4.50;;;;;;;30.41;31.30;99932.97;105535;1283;107551;-72
2022/05/09 09:44:10;;;;;;;7.80;4.20;;;;;;;30.91;30.94;99925.84;105587;1283;98514;-70
2022/05/09 09:47:03;;;;;;;14.40;4.50;;;;;;;31.42;31.10;99926.64;105366;1283;98043;-70
2022/05/09 09:49:38;;;;;;;8.50;3.30;;;;;;;31.95;30.97;99922.50;105430;1283;111529;-70
2022/05/09 09:52:53;;;;;;;9.40;3.40;;;;;;;32.11;30.98;99921.48;105554;1283;98579;-70
2022/05/09 09:55:29;;;;;;;7.30;3.30;;;;;;;31.47;31.00;99923.70;104604;1290;108282;-72
2022/05/09 09:58:19;;;;;;;9.40;3.70;;;;;;;30.90;30.78;99919.55;104452;1290;98170;-72
2022/05/09 10:01:01;;;;;;;6.50;3.70;;;;;;;30.33;30.80;99920.02;105126;1283;97892;-69
2022/05/09 10:03:31;;;;;;;9.90;3.60;;;;;;;29.71;30.97;99922.42;105356;1283;110946;-71
2022/05/09 10:06:01;;;;;;;10.90;4.90;;;;;;;29.19;30.79;99921.28;105279;1283;97964;-72
2022/05/09 10:08:38;;;;;;;12.40;5.70;;;;;;;28.89;30.92;99922.38;105479;1283;107855;-71
2022/05/09 10:11:24;;;;;;;8.60;3.90;;;;;;;28.65;30.92;99919.35;105529;1283;97893;-71
2022/05/09 10:13:57;;;;;;;12.30;6.90;;;;;;;28.35;30.81;99918.53;105482;1283;97969;-73
2022/05/09 10:16:45;;;;;;;19.50;7.70;;;;;;;28.14;30.79;99912.88;105322;1283;111066;-72
2022/05/09 10:19:31;;;;;;;6.30;3.80;;;;;;;28.02;30.72;99909.67;105355;1283;97896;-71
2022/05/09 10:25:09;;;;;;;16.20;7.60;;;;;;;27.17;30.55;99908.62;105427;1283;97896;-72
2022/05/09 10:27:41;;;;;;;8.90;4.50;;;;;;;26.62;30.71;99903.77;105564;1283;97920;-71
2022/05/09 10:30:35;;;;;;;7.80;3.70;;;;;;;26.23;30.93;99905.34;105500;1283;111510;-71
2022/05/09 10:33:21;;;;;;;8.50;3.90;;;;;;;26.01;30.97;99905.16;105523;1283;95920;-71
2022/05/09 10:35:56;;;;;;;10.90;3.80;;;;;;;25.83;31.13;99905.26;105444;1283;109553;-73
2022/05/09 10:39:08;;;;;;;7.50;3.70;;;;;;;25.83;31.28;99901.98;105434;1283;95343;-72
2022/05/09 10:41:45;;;;;;;7.70;3.70;;;;;;;25.78;31.43;99899.73;104505;1290;98469;-73
2022/05/09 10:44:28;;;;;;;9.00;4.10;;;;;;;25.72;31.50;99900.23;105256;1283;112272;-73
2022/05/09 10:47:07;;;;;;;7.90;3.60;;;;;;;25.69;31.51;99900.38;105418;1283;98496;-72
2022/05/09 10:50:02;;;;;;;6.90;3.10;;;;;;;25.71;31.77;99901.45;105305;1283;106743;-71
2022/05/09 10:52:59;;;;;;;7.60;3.40;;;;;;;25.78;31.76;99892.40;105398;1283;97916;-72
2022/05/09 10:55:36;;;;;;;5.40;3.00;;;;;;;25.82;31.99;99895.68;105299;1283;96504;-72
2022/05/09 10:58:23;;;;;;;5.60;2.80;;;;;;;25.84;31.60;99897.52;105369;1283;111474;-71
2022/05/09 11:01:16;;;;;;;9.70;3.50;;;;;;;25.71;31.65;99894.32;105450;1283;98290;-71
2022/05/09 11:03:48;;;;;;;9.60;3.20;;;;;;;25.63;31.55;99891.42;105327;1281;107794;-69
2022/05/09 11:06:46;;;;;;;7.80;3.20;;;;;;;25.60;31.75;99883.25;105323;1282;95863;-72
2022/05/09 11:09:57;;;;;;;9.80;4.50;;;;;;;25.42;31.87;99889.14;105296;1283;97990;-72
2022/05/09 11:12:52;;;;;;;7.40;3.50;;;;;;;25.16;31.89;99896.67;105341;1283;111431;-72
2022/05/09 11:15:42;;;;;;;6.20;3.20;;;;;;;24.95;32.03;99897.73;105301;1283;97940;-70
2022/05/09 11:18:16;;;;;;;6.70;3.50;;;;;;;24.89;32.24;99894.63;105469;1283;107768;-71
2022/05/09 11:20:58;;;;;;;4.80;3.10;;;;;;;24.88;32.35;99899.70;105410;1283;97970;-71
2022/05/09 11:23:45;;;;;;;11.40;3.50;;;;;;;24.82;32.23;99896.00;105623;1282;97919;-72
2022/05/09 11:26:41;;;;;;;6.50;3.30;;;;;;;24.73;32.41;99899.50;105483;1281;111651;-71
2022/05/09 11:29:24;;;;;;;11.30;3.80;;;;;;;24.73;32.66;99898.42;105457;1283;97074;-71
2022/05/09 11:32:27;;;;;;;10.10;3.60;;;;;;;24.70;32.58;99893.58;105399;1283;108147;-69
2022/05/09 11:35:30;;;;;;;9.10;3.40;;;;;;;24.62;32.67;99887.14;105259;1284;98460;-70
2022/05/09 11:38:26;;;;;;;8.40;3.50;;;;;;;24.51;32.81;99880.01;105446;1283;97961;-71
2022/05/09 11:41:01;;;;;;;8.20;3.10;;;;;;;24.48;32.86;99878.58;105395;1283;112065;-72
2022/05/09 11:44:01;;;;;;;6.60;3.30;;;;;;;24.47;32.93;99876.89;105367;1283;97856;-71
2022/05/09 11:47:02;;;;;;;9.00;3.50;;;;;;;24.56;33.21;99876.79;105257;1283;107779;-72
2022/05/09 11:50:10;;;;;;;6.10;3.40;;;;;;;24.63;33.24;99870.89;105375;1282;97912;-73
2022/05/09 11:52:42;;;;;;;7.00;2.90;;;;;;;24.67;33.03;99872.01;105352;1284;98072;-71
2022/05/09 11:55:22;;;;;;;8.70;3.40;;;;;;;24.62;33.26;99867.18;105561;1283;111423;-71
2022/05/09 11:57:58;;;;;;;8.30;3.40;;;;;;;24.65;33.12;99865.73;105190;1283;95991;-69